Time;durP1;ratioP1;P1;durP2;ratioP2;P2;SDS_P1;SDS_P2;PMS_P1;PMS_P2;Temp;Humidity;BMP_temperature;BMP_pressure;BME280_temperature;BME280_humidity;BME280_pressure;Samples;Min_cycle;Max_cycle;Signal;HPM_P1;HPM_P2
2021/12/19 00:00:55;;;;;;;14.50;10.38;;;;;;;2.22;66.47;100181.41;5089031;28;20083;-65
2021/12/19 00:03:49;;;;;;;16.13;11.68;;;;;;;2.22;66.56;100179.66;5089244;28;20041;-65
2021/12/19 00:09:13;;;;;;;17.90;11.32;;;;;;;2.31;66.07;100196.16;5088582;28;20048;-65
2021/12/19 00:11:45;;;;;;;19.42;12.15;;;;;;;2.31;66.00;100191.81;5088812;28;20288;-65
2021/12/19 00:14:19;;;;;;;18.10;12.90;;;;;;;2.29;66.29;100192.69;5088780;28;20041;-65
2021/12/19 00:16:54;;;;;;;17.33;11.13;;;;;;;2.26;66.32;100177.03;5088717;28;20165;-65
2021/12/19 00:19:26;;;;;;;16.38;11.88;;;;;;;2.25;66.50;100177.91;5088984;28;20097;-65
2021/12/19 00:21:58;;;;;;;18.58;11.70;;;;;;;2.28;66.33;100173.53;5088817;28;20086;-65
2021/12/19 00:24:30;;;;;;;17.90;13.68;;;;;;;2.32;66.33;100162.16;5088531;28;20059;-65
2021/12/19 00:27:03;;;;;;;16.65;11.77;;;;;;;2.29;66.48;100164.78;5088474;28;20090;-65
2021/12/19 00:29:35;;;;;;;16.67;12.73;;;;;;;2.23;66.77;100162.22;5088780;28;20090;-65
2021/12/19 00:32:09;;;;;;;19.55;11.45;;;;;;;2.21;66.82;100166.59;5088426;28;20040;-65
2021/12/19 00:34:41;;;;;;;17.23;12.05;;;;;;;2.18;66.77;100175.34;5088695;28;20110;-65
2021/12/19 00:37:13;;;;;;;18.90;11.90;;;;;;;2.13;66.88;100181.50;5088935;28;20346;-65
2021/12/19 00:39:45;;;;;;;15.45;11.27;;;;;;;2.08;67.39;100181.53;5088616;28;20048;-65
2021/12/19 00:42:27;;;;;;;20.20;14.05;;;;;;;2.09;67.58;100187.63;5088783;28;20056;-65
2021/12/19 00:45:02;;;;;;;17.70;13.05;;;;;;;2.08;67.41;100172.81;5088611;28;20082;-65
2021/12/19 00:47:36;;;;;;;16.02;11.23;;;;;;;2.03;67.54;100162.38;5088365;28;20044;-65
2021/12/19 00:50:08;;;;;;;15.63;11.68;;;;;;;1.92;67.79;100152.91;5088203;28;20040;-65
2021/12/19 00:52:41;;;;;;;20.13;13.27;;;;;;;1.88;68.10;100146.81;5088153;28;20048;-64
2021/12/19 00:55:13;;;;;;;17.83;12.68;;;;;;;1.87;67.73;100151.19;5087770;28;20246;-65
2021/12/19 00:57:46;;;;;;;20.45;13.18;;;;;;;1.83;67.97;100148.59;5088325;28;20045;-65
2021/12/19 01:00:20;;;;;;;18.58;12.68;;;;;;;1.82;68.08;100129.44;5088513;28;20102;-65
2021/12/19 01:02:57;;;;;;;19.42;14.60;;;;;;;1.85;67.65;100121.56;5088169;28;20247;-65
2021/12/19 01:05:31;;;;;;;18.58;11.50;;;;;;;1.80;67.95;100115.50;5088207;28;20185;-65
2021/12/19 01:08:06;;;;;;;19.38;12.65;;;;;;;1.73;68.37;100112.97;5088073;28;20041;-65
2021/12/19 01:10:39;;;;;;;17.52;12.77;;;;;;;1.75;68.23;100108.59;5087862;28;20086;-65
2021/12/19 01:13:11;;;;;;;18.30;12.27;;;;;;;1.71;68.12;100110.34;5088060;28;20040;-65
2021/12/19 01:15:44;;;;;;;19.42;14.00;;;;;;;1.67;68.27;100124.31;5088191;28;20118;-65
2021/12/19 01:18:17;;;;;;;18.52;12.05;;;;;;;1.66;68.48;100121.72;5087633;28;20296;-65
2021/12/19 01:20:50;;;;;;;18.05;14.05;;;;;;;1.62;68.48;100117.41;5087661;28;20048;-66
2021/12/19 01:23:22;;;;;;;18.13;13.35;;;;;;;1.61;68.55;100118.28;5087218;28;20048;-65
2021/12/19 01:25:55;;;;;;;17.77;12.60;;;;;;;1.55;68.81;100101.72;5087723;28;20102;-66
2021/12/19 01:28:25;;;;;;;16.40;12.35;;;;;;;1.56;68.49;100121.75;5087592;28;20044;-65
2021/12/19 01:30:55;;;;;;;18.83;13.15;;;;;;;1.55;68.84;100104.34;5087547;28;20044;-65
2021/12/19 01:33:27;;;;;;;19.50;13.50;;;;;;;1.26;68.89;100054.91;5087248;28;20040;-65
2021/12/19 01:35:56;;;;;;;21.15;15.13;;;;;;;1.48;69.25;100110.47;5087533;28;20114;-65
2021/12/19 01:38:26;;;;;;;20.67;14.07;;;;;;;1.51;69.14;100118.28;5087176;28;20045;-65
2021/12/19 01:40:56;;;;;;;19.17;13.38;;;;;;;1.52;69.12;100117.41;5087063;28;20052;-65
2021/12/19 01:43:27;;;;;;;21.17;14.60;;;;;;;1.20;69.77;100057.56;5087294;28;20064;-65
2021/12/19 01:45:56;;;;;;;19.77;14.18;;;;;;;1.49;69.90;100113.97;5087028;28;20036;-65
2021/12/19 01:48:28;;;;;;;23.45;14.45;;;;;;;1.48;70.09;100107.00;5086909;28;20358;-65
2021/12/19 01:50:57;;;;;;;20.80;14.52;;;;;;;1.49;69.44;100093.94;5086893;28;20045;-65
2021/12/19 01:53:28;;;;;;;22.10;14.75;;;;;;;1.49;69.49;100098.28;5086881;28;20040;-65
2021/12/19 01:55:58;;;;;;;20.83;13.25;;;;;;;1.51;69.89;100106.97;5087075;28;20075;-65
2021/12/19 01:58:28;;;;;;;21.25;14.52;;;;;;;1.55;69.69;100111.31;5087029;28;20044;-66
2021/12/19 02:00:59;;;;;;;20.25;13.07;;;;;;;1.60;69.24;100096.50;5086727;28;20243;-65
2021/12/19 02:03:30;;;;;;;22.05;15.43;;;;;;;1.58;69.94;100104.31;5086654;28;20056;-66
2021/12/19 02:05:58;;;;;;;18.13;13.25;;;;;;;1.60;69.88;100101.72;5086537;28;20036;-66
2021/12/19 02:08:29;;;;;;;20.42;14.00;;;;;;;1.63;70.18;100088.63;5086290;28;20288;-66
2021/12/19 02:10:59;;;;;;;20.95;14.77;;;;;;;1.67;69.25;100087.75;5086797;28;20049;-65
2021/12/19 02:13:29;;;;;;;19.38;13.25;;;;;;;1.68;69.86;100075.53;5086730;28;20292;-65
2021/12/19 02:16:00;;;;;;;21.13;14.52;;;;;;;1.70;69.68;100087.72;5086723;28;20074;-65
2021/12/19 02:18:31;;;;;;;21.35;12.90;;;;;;;1.72;69.85;100085.09;5086350;28;20040;-66
2021/12/19 02:21:01;;;;;;;20.23;14.25;;;;;;;1.73;69.89;100076.38;5086598;28;20045;-66
2021/12/19 02:23:30;;;;;;;17.33;12.95;;;;;;;1.75;69.72;100088.53;5086313;28;20041;-66
2021/12/19 02:26:01;;;;;;;21.30;14.68;;;;;;;1.74;69.66;100078.09;5086534;28;20118;-66
2021/12/19 02:28:31;;;;;;;20.92;14.07;;;;;;;1.78;69.76;100065.00;5086395;28;20335;-66
2021/12/19 02:31:01;;;;;;;21.25;13.95;;;;;;;1.78;69.68;100062.38;5086166;28;20230;-66
2021/12/19 02:33:36;;;;;;;17.10;11.90;;;;;;;1.81;69.82;100043.19;5086393;28;20063;-65
2021/12/19 02:36:22;;;;;;;21.08;13.32;;;;;;;1.79;69.87;100044.97;5086337;28;20098;-65
2021/12/19 02:50:29;;;;;;;18.85;13.73;;;;;;;1.83;69.57;100017.91;5085856;28;20082;-65
2021/12/19 02:53:02;;;;;;;20.48;13.88;;;;;;;1.84;70.01;100017.03;5086092;28;20048;-65
2021/12/19 02:55:34;;;;;;;23.17;14.27;;;;;;;1.81;70.17;100027.53;5086017;28;20048;-65
2021/12/19 02:58:07;;;;;;;22.58;15.18;;;;;;;1.52;70.10;99968.50;5086005;28;20078;-65
2021/12/19 03:00:39;;;;;;;20.58;14.70;;;;;;;1.83;70.62;100015.31;5086284;28;20048;-65
2021/12/19 03:03:11;;;;;;;21.60;14.32;;;;;;;1.83;69.97;100021.41;5085986;28;20056;-66
2021/12/19 03:05:44;;;;;;;21.48;14.63;;;;;;;1.82;70.70;100010.94;5085942;28;20101;-66
2021/12/19 03:08:18;;;;;;;21.52;14.23;;;;;;;1.83;70.51;100017.91;5085618;28;20090;-66
2021/12/19 03:11:39;;;;;;;22.88;14.32;;;;;;;1.84;70.45;100019.66;5085933;28;20341;-65
2021/12/19 03:19:59;;;;;;;23.65;14.60;;;;;;;1.78;70.75;99997.03;5044139;28;20041;-66
2021/12/19 03:22:31;;;;;;;19.63;13.43;;;;;;;1.75;70.92;99990.97;5079044;28;20056;-66
2021/12/19 03:25:05;;;;;;;24.02;15.20;;;;;;;1.81;70.47;99980.47;5085450;28;20086;-66
2021/12/19 03:27:38;;;;;;;20.55;13.70;;;;;;;1.81;70.68;99970.88;5085483;28;20086;-66
2021/12/19 03:30:11;;;;;;;17.65;11.45;;;;;;;1.84;70.19;99986.53;5085387;28;20048;-66
2021/12/19 03:32:43;;;;;;;19.20;11.73;;;;;;;1.82;70.78;99977.84;5085416;28;20231;-66
2021/12/19 03:35:16;;;;;;;19.25;12.88;;;;;;;1.82;70.41;99980.47;5085695;28;20059;-65
2021/12/19 03:37:50;;;;;;;18.42;13.25;;;;;;;1.81;70.36;99980.47;5085303;28;20040;-65
2021/12/19 03:40:34;;;;;;;20.83;13.15;;;;;;;1.80;70.71;99974.38;5085336;28;20056;-66
2021/12/19 03:43:10;;;;;;;19.83;12.83;;;;;;;1.77;70.78;99971.78;5085533;28;20090;-65
2021/12/19 03:45:44;;;;;;;17.65;11.65;;;;;;;1.80;70.64;99970.91;5085539;28;20379;-65
2021/12/19 03:48:18;;;;;;;18.90;13.50;;;;;;;1.83;70.29;99966.50;5085571;28;20045;-66
2021/12/19 03:50:50;;;;;;;16.50;10.93;;;;;;;1.80;71.09;99952.59;5085259;28;20044;-66
2021/12/19 03:53:23;;;;;;;16.17;11.45;;;;;;;1.77;70.90;99950.03;5085163;28;20045;-65
2021/12/19 03:55:56;;;;;;;17.25;10.60;;;;;;;1.76;71.02;99959.63;5085171;28;20350;-66
2021/12/19 03:58:30;;;;;;;20.27;12.02;;;;;;;1.77;71.00;99952.63;5085121;28;20041;-66
2021/12/19 04:01:05;;;;;;;18.48;11.88;;;;;;;1.80;70.50;99934.31;5085142;28;20236;-66
2021/12/19 04:03:37;;;;;;;16.92;11.77;;;;;;;1.82;70.75;99932.53;5085378;28;20241;-66
2021/12/19 04:06:07;;;;;;;19.10;12.45;;;;;;;1.76;70.99;99930.88;5085315;28;20036;-65
2021/12/19 04:08:38;;;;;;;18.35;13.30;;;;;;;1.72;71.09;99955.28;5084659;28;20113;-66
2021/12/19 04:11:09;;;;;;;17.50;10.60;;;;;;;1.74;71.08;99952.66;5085218;28;20086;-66
2021/12/19 04:13:38;;;;;;;18.45;11.60;;;;;;;1.74;70.91;99950.91;5085296;28;20312;-66
2021/12/19 04:16:08;;;;;;;21.05;12.45;;;;;;;1.76;71.22;99948.28;5085285;28;20340;-66
2021/12/19 04:18:39;;;;;;;25.35;14.27;;;;;;;1.75;71.01;99947.44;5084872;28;20044;-66
2021/12/19 04:21:09;;;;;;;18.95;13.50;;;;;;;1.78;71.00;99950.00;5085184;28;20048;-66
2021/12/19 04:23:40;;;;;;;20.17;12.77;;;;;;;1.73;70.97;99937.88;5084894;28;20087;-66
2021/12/19 04:26:11;;;;;;;17.90;11.15;;;;;;;1.67;71.71;99930.09;5085129;28;20287;-65
2021/12/19 04:28:39;;;;;;;17.83;11.60;;;;;;;1.67;71.43;99940.53;5085122;28;20119;-65
2021/12/19 04:31:10;;;;;;;17.58;11.27;;;;;;;1.41;71.59;99894.59;5088502;28;20086;-65
2021/12/19 04:33:42;;;;;;;20.10;11.98;;;;;;;1.61;71.38;99930.16;5088752;28;20063;-65
2021/12/19 04:36:16;;;;;;;19.23;12.57;;;;;;;1.56;71.73;99911.88;5088442;28;20043;-65
2021/12/19 04:39:17;;;;;;;18.23;10.82;;;;;;;1.56;72.00;99906.66;5088338;28;20040;-65
2021/12/19 04:42:34;;;;;;;19.58;12.88;;;;;;;1.54;71.86;99908.41;5088405;28;20045;-65
2021/12/19 04:53:33;;;;;;;16.42;10.27;;;;;;;1.58;71.38;99903.13;5087939;28;20086;-65
2021/12/19 04:56:26;;;;;;;16.85;10.98;;;;;;;1.57;71.71;99890.97;5087927;28;20044;-65
2021/12/19 04:59:25;;;;;;;16.88;10.70;;;;;;;1.60;72.06;99877.03;5088895;28;20036;-65
2021/12/19 05:02:15;;;;;;;18.02;11.73;;;;;;;1.58;71.93;99884.84;5087919;28;20056;-65
2021/12/19 05:05:22;;;;;;;17.10;11.05;;;;;;;1.64;71.45;99883.97;5087852;28;20064;-65
2021/12/19 05:16:25;;;;;;;17.42;11.73;;;;;;;1.64;71.61;99856.97;5087646;28;20082;-65
2021/12/19 05:19:04;;;;;;;15.88;9.98;;;;;;;1.65;71.62;99859.56;5087914;28;20098;-65
2021/12/19 05:21:39;;;;;;;15.23;9.27;;;;;;;1.57;72.14;99838.72;5087543;28;20088;-65
2021/12/19 05:24:32;;;;;;;14.82;8.23;;;;;;;1.62;71.71;99814.31;5087484;28;20040;-65
2021/12/19 05:27:04;;;;;;;16.83;9.25;;;;;;;1.66;71.47;99802.94;5087720;28;20082;-65
2021/12/19 05:29:37;;;;;;;14.73;10.85;;;;;;;1.63;71.95;99810.81;5087334;28;20086;-65
2021/12/19 05:32:11;;;;;;;15.38;9.98;;;;;;;1.62;72.14;99815.19;5087601;28;20036;-65
2021/12/19 05:34:44;;;;;;;14.02;9.68;;;;;;;1.32;71.94;99753.66;5087359;28;20247;-65
2021/12/19 05:45:46;;;;;;;17.08;11.93;;;;;;;1.35;71.90;99752.78;5087324;28;20114;-64
2021/12/19 05:48:20;;;;;;;16.50;10.65;;;;;;;1.53;72.02;99770.84;5087288;28;20053;-65
2021/12/19 05:50:52;;;;;;;16.48;11.95;;;;;;;1.49;72.29;99770.00;5086887;28;20070;-65
2021/12/19 05:53:24;;;;;;;16.60;11.57;;;;;;;0.38;72.27;99575.53;5087161;28;20049;-65
2021/12/19 05:55:57;;;;;;;16.83;11.43;;;;;;;1.52;72.17;99761.28;5087108;28;20102;-65
2021/12/19 05:58:30;;;;;;;14.93;8.68;;;;;;;1.52;71.97;99743.00;5086812;28;20082;-65
2021/12/19 06:01:02;;;;;;;15.93;10.35;;;;;;;1.51;72.19;99747.34;5087060;28;20044;-65
2021/12/19 06:03:35;;;;;;;21.02;12.02;;;;;;;1.48;72.48;99744.78;5086961;28;20086;-65
2021/12/19 06:06:07;;;;;;;15.98;10.25;;;;;;;1.48;72.47;99755.22;5086658;28;20086;-65
2021/12/19 06:08:40;;;;;;;18.58;11.27;;;;;;;1.42;72.63;99741.38;5086646;28;20052;-65
2021/12/19 06:11:11;;;;;;;15.20;10.30;;;;;;;1.45;72.23;99738.72;5086779;28;20045;-65
2021/12/19 06:13:40;;;;;;;15.48;10.40;;;;;;;1.46;72.28;99743.06;5086751;28;20040;-65
2021/12/19 06:16:10;;;;;;;17.38;10.27;;;;;;;1.45;72.16;99741.34;5086455;28;20086;-65
2021/12/19 06:18:42;;;;;;;16.42;10.32;;;;;;;1.40;72.55;99730.06;5086450;28;20047;-65
2021/12/19 06:21:11;;;;;;;16.05;11.40;;;;;;;1.35;72.53;99722.31;5086373;28;20044;-65
2021/12/19 06:23:41;;;;;;;13.30;9.73;;;;;;;1.04;72.75;99674.81;5086617;28;20229;-65
2021/12/19 06:26:11;;;;;;;16.88;12.68;;;;;;;1.29;72.96;99708.44;5086576;28;20103;-65
2021/12/19 06:28:42;;;;;;;16.63;9.85;;;;;;;1.03;72.67;99669.59;5086465;28;20040;-65
2021/12/19 06:31:12;;;;;;;16.60;10.57;;;;;;;1.31;72.47;99712.78;5086087;28;20103;-65
2021/12/19 06:33:43;;;;;;;16.02;10.63;;;;;;;1.29;72.74;99688.44;5086058;28;20293;-65
2021/12/19 06:36:12;;;;;;;14.98;10.48;;;;;;;1.28;72.58;99686.69;5086344;28;20048;-65
2021/12/19 06:38:43;;;;;;;15.70;10.57;;;;;;;1.29;72.21;99664.06;5086027;28;20090;-65
2021/12/19 06:41:13;;;;;;;15.98;11.02;;;;;;;1.25;72.62;99671.06;5086005;28;20044;-65
2021/12/19 06:43:43;;;;;;;19.92;11.27;;;;;;;1.22;73.02;99645.88;5086254;28;20041;-65
2021/12/19 06:46:14;;;;;;;15.10;10.18;;;;;;;1.25;72.49;99668.47;5086214;28;20300;-65
2021/12/19 06:48:45;;;;;;;16.25;10.27;;;;;;;1.22;72.58;99637.16;5085911;28;20040;-65
2021/12/19 06:51:14;;;;;;;15.88;9.88;;;;;;;1.18;72.81;99641.56;5085551;28;20075;-65
2021/12/19 06:53:44;;;;;;;16.95;10.30;;;;;;;0.87;72.70;99594.09;5085449;28;20040;-65
2021/12/19 06:56:15;;;;;;;15.07;9.70;;;;;;;-0.36;72.25;99394.78;5086089;28;20300;-65
2021/12/19 06:58:45;;;;;;;15.40;9.90;;;;;;;1.20;72.78;99644.16;5085767;28;20040;-65
2021/12/19 07:01:15;;;;;;;14.82;9.50;;;;;;;1.17;72.64;99634.63;5085709;28;20067;-65
2021/12/19 07:03:46;;;;;;;12.70;8.18;;;;;;;1.16;72.77;99621.59;5085905;28;20044;-65
2021/12/19 07:06:15;;;;;;;12.75;8.20;;;;;;;1.21;72.68;99640.66;5085904;28;20064;-65
2021/12/19 07:08:46;;;;;;;14.68;10.00;;;;;;;1.22;72.46;99621.50;5085614;28;20206;-65
2021/12/19 07:11:16;;;;;;;14.65;9.40;;;;;;;1.25;72.07;99621.47;5085925;28;20042;-65
2021/12/19 07:13:47;;;;;;;15.77;8.52;;;;;;;1.24;72.22;99624.97;5085840;28;20075;-65
2021/12/19 07:16:16;;;;;;;12.02;7.53;;;;;;;1.01;71.91;99578.28;5085520;28;20037;-65
2021/12/19 07:18:48;;;;;;;13.10;8.18;;;;;;;1.30;71.88;99617.03;5085518;28;20265;-65
2021/12/19 07:21:17;;;;;;;11.02;7.95;;;;;;;1.30;71.74;99617.03;5085498;28;20044;-65
2021/12/19 07:23:47;;;;;;;11.85;7.55;;;;;;;1.37;71.53;99615.22;5085690;28;20120;-65
2021/12/19 07:26:17;;;;;;;12.65;8.85;;;;;;;1.40;71.40;99629.09;5085702;28;20071;-65
2021/12/19 07:28:49;;;;;;;12.38;7.53;;;;;;;1.44;70.88;99606.41;5085411;28;20189;-65
2021/12/19 07:31:18;;;;;;;11.35;7.20;;;;;;;1.46;71.10;99605.50;5085408;28;20064;-65
2021/12/19 07:33:49;;;;;;;13.23;7.63;;;;;;;1.43;71.14;99586.41;5085615;28;20064;-65
2021/12/19 07:36:19;;;;;;;13.13;7.10;;;;;;;1.48;70.79;99592.41;5085266;28;20040;-65
2021/12/19 07:38:54;;;;;;;11.93;7.28;;;;;;;1.50;70.76;99591.50;5086130;28;20074;-65
2021/12/19 07:41:24;;;;;;;10.55;7.22;;;;;;;1.54;70.88;99594.94;5085472;28;20044;-65
2021/12/19 07:43:54;;;;;;;12.23;7.82;;;;;;;1.58;70.37;99580.94;5085510;28;20048;-65
2021/12/19 07:46:24;;;;;;;9.50;6.38;;;;;;;1.61;70.54;99609.66;5085237;28;20043;-65
2021/12/19 07:48:56;;;;;;;11.25;7.45;;;;;;;1.68;70.36;99577.34;5085492;28;20331;-65
2021/12/19 07:51:25;;;;;;;11.65;7.07;;;;;;;1.79;70.03;99579.78;5085379;28;20060;-65
2021/12/19 07:53:55;;;;;;;9.85;6.10;;;;;;;1.92;69.87;99573.47;5085470;28;20048;-65
2021/12/19 07:56:25;;;;;;;9.93;7.20;;;;;;;2.01;69.39;99580.28;5084641;28;20052;-65
2021/12/19 07:58:55;;;;;;;8.82;6.10;;;;;;;2.19;69.00;99575.59;5085376;28;20205;-65
2021/12/19 08:01:26;;;;;;;10.50;6.68;;;;;;;2.32;68.46;99571.00;5085307;28;20072;-65
2021/12/19 08:03:58;;;;;;;7.82;5.15;;;;;;;2.41;68.13;99563.00;5087368;28;20075;-65
2021/12/19 08:06:26;;;;;;;9.68;5.88;;;;;;;2.53;67.62;99543.56;5089139;28;20319;-65
2021/12/19 08:08:58;;;;;;;8.60;6.45;;;;;;;2.66;67.35;99537.19;5088669;28;20220;-65
2021/12/19 08:14:15;;;;;;;9.07;5.65;;;;;;;2.27;66.40;99442.06;5088762;28;20052;-65
2021/12/19 08:16:48;;;;;;;9.70;6.90;;;;;;;2.88;66.42;99541.09;5088785;28;20239;-65
2021/12/19 08:19:21;;;;;;;9.52;6.47;;;;;;;3.02;66.37;99524.22;5088981;28;20442;-65
2021/12/19 08:21:53;;;;;;;10.52;6.22;;;;;;;3.00;65.84;99510.31;5088452;28;20228;-66
2021/12/19 08:24:26;;;;;;;8.95;5.65;;;;;;;3.13;65.77;99509.16;5088490;28;20041;-65
2021/12/19 08:26:58;;;;;;;9.48;6.38;;;;;;;3.10;65.23;99483.88;5088430;28;20255;-65
2021/12/19 08:29:30;;;;;;;9.88;7.20;;;;;;;3.05;65.33;99513.69;5088742;28;20040;-65
2021/12/19 08:32:02;;;;;;;10.75;6.40;;;;;;;3.13;65.43;99485.56;5088338;28;20044;-65
2021/12/19 08:34:36;;;;;;;9.70;6.28;;;;;;;3.26;65.24;99499.25;5088325;28;20036;-65
2021/12/19 08:37:08;;;;;;;8.30;5.43;;;;;;;3.35;64.76;99484.19;5087765;28;20048;-65
2021/12/19 08:39:41;;;;;;;10.07;5.78;;;;;;;3.36;64.83;99495.53;5088261;28;20044;-65
2021/12/19 08:42:14;;;;;;;9.55;6.22;;;;;;;3.44;64.37;99478.72;5088479;28;20044;-65
2021/12/19 08:44:46;;;;;;;9.05;5.38;;;;;;;3.56;64.50;99502.91;5087976;28;20250;-65
2021/12/19 08:47:18;;;;;;;7.85;5.70;;;;;;;3.64;63.97;99504.44;5088063;28;20059;-65
2021/12/19 08:49:52;;;;;;;9.13;6.88;;;;;;;3.76;63.44;99526.84;5088466;28;20086;-65
2021/12/19 08:52:24;;;;;;;8.63;6.22;;;;;;;3.74;62.79;99498.06;5087799;28;20090;-65
2021/12/19 08:54:56;;;;;;;10.57;6.95;;;;;;;3.90;63.16;99542.25;5087958;28;20094;-65
2021/12/19 08:57:30;;;;;;;10.73;6.10;;;;;;;3.96;63.08;99526.34;5087923;28;20094;-65
2021/12/19 09:00:02;;;;;;;9.50;6.03;;;;;;;4.15;63.12;99533.72;5088150;28;20293;-65
2021/12/19 09:02:34;;;;;;;8.55;5.13;;;;;;;4.34;62.60;99535.88;5088999;28;20045;-65
2021/12/19 09:05:09;;;;;;;8.13;5.40;;;;;;;4.46;61.42;99525.91;5088014;28;20293;-65
2021/12/19 09:07:41;;;;;;;8.40;5.22;;;;;;;4.69;61.81;99524.41;5088097;28;20097;-65
2021/12/19 09:10:13;;;;;;;7.32;5.78;;;;;;;4.83;61.10;99501.22;5087633;28;20068;-65
2021/12/19 09:12:46;;;;;;;8.20;5.80;;;;;;;5.03;60.60;99483.13;5087831;28;20056;-65
2021/12/19 09:15:19;;;;;;;10.93;6.20;;;;;;;5.06;60.60;99485.66;5087264;28;20174;-65
2021/12/19 09:17:51;;;;;;;9.27;5.47;;;;;;;2.75;60.08;99088.63;5087889;28;20083;-65
2021/12/19 09:20:25;;;;;;;10.00;6.32;;;;;;;5.22;59.35;99509.69;5087789;28;20292;-65
2021/12/19 09:22:57;;;;;;;8.25;5.22;;;;;;;5.24;59.45;99510.50;5087442;28;20091;-65
2021/12/19 09:25:29;;;;;;;7.47;5.78;;;;;;;5.31;59.80;99501.53;5087708;28;20251;-65
2021/12/19 09:28:01;;;;;;;8.00;4.97;;;;;;;5.10;59.85;99465.41;5087272;28;20044;-65
2021/12/19 09:30:34;;;;;;;8.65;5.25;;;;;;;5.49;58.56;99518.47;5087622;28;20086;-66
2021/12/19 09:33:06;;;;;;;6.90;3.92;;;;;;;5.35;57.94;99526.81;5087343;28;20093;-65
2021/12/19 09:35:40;;;;;;;7.38;5.03;;;;;;;5.32;59.20;99507.66;5087316;28;20036;-66
2021/12/19 09:38:13;;;;;;;7.53;4.53;;;;;;;5.30;59.30;99496.31;5087481;28;20056;-66
2021/12/19 09:40:47;;;;;;;7.13;4.65;;;;;;;5.42;59.32;99507.31;5087138;28;20091;-65
2021/12/19 09:43:41;;;;;;;8.68;5.63;;;;;;;5.49;58.09;99500.09;5087142;28;20302;-65
2021/12/19 09:46:16;;;;;;;7.00;4.35;;;;;;;5.41;57.58;99499.47;5087326;28;20094;-66
2021/12/19 09:48:49;;;;;;;7.82;4.47;;;;;;;5.37;57.53;99490.81;5087286;28;20098;-66
2021/12/19 09:51:23;;;;;;;8.73;5.07;;;;;;;5.24;57.83;99500.00;5086768;28;20082;-66
2021/12/19 09:53:55;;;;;;;6.55;3.97;;;;;;;5.37;58.70;99500.47;5086951;28;20300;-66
2021/12/19 09:56:28;;;;;;;7.22;4.80;;;;;;;4.89;57.29;99445.94;5086794;28;20040;-66
2021/12/19 09:58:57;;;;;;;6.03;4.22;;;;;;;5.23;57.72;99435.22;5086752;28;20040;-65
2021/12/19 10:01:28;;;;;;;6.00;3.95;;;;;;;5.72;58.03;99473.03;5086995;28;20335;-65
2021/12/19 10:03:58;;;;;;;7.10;4.75;;;;;;;5.78;57.50;99462.31;5086882;28;20048;-67
2021/12/19 10:06:31;;;;;;;8.00;5.07;;;;;;;5.94;56.35;99457.38;5086780;28;20040;-67
2021/12/19 10:09:10;;;;;;;7.05;4.05;;;;;;;6.08;54.96;99436.72;5086434;28;20079;-67
2021/12/19 10:11:57;;;;;;;6.30;4.70;;;;;;;6.06;56.26;99413.09;5086676;28;20090;-67
2021/12/19 10:14:33;;;;;;;10.75;4.63;;;;;;;6.26;56.48;99429.94;5086361;28;20045;-66
2021/12/19 10:17:08;;;;;;;6.35;4.40;;;;;;;6.58;56.11;99434.84;5086421;28;20040;-66
2021/12/19 10:19:45;;;;;;;6.40;4.10;;;;;;;6.62;54.28;99417.16;5086271;28;20063;-65
2021/12/19 10:22:27;;;;;;;6.80;4.15;;;;;;;6.72;53.84;99436.97;5086466;28;20139;-66
2021/12/19 10:25:13;;;;;;;6.20;3.88;;;;;;;6.66;53.00;99439.84;5086325;28;20040;-66
2021/12/19 10:27:47;;;;;;;5.60;3.63;;;;;;;6.58;53.51;99415.56;5085209;28;20059;-66
2021/12/19 10:30:24;;;;;;;5.93;3.60;;;;;;;6.55;53.71;99394.63;5086378;28;20098;-66
2021/12/19 10:32:59;;;;;;;4.85;2.97;;;;;;;6.59;54.38;99417.28;5086101;28;20293;-66
2021/12/19 10:35:32;;;;;;;;;;;;;;;6.60;52.45;99432.16;5086760;28;20048;-65
2021/12/19 10:38:07;;;;;;;5.10;3.50;;;;;;;6.63;54.09;99439.94;5085420;28;19916;-65
2021/12/19 10:40:40;;;;;;;5.20;3.67;;;;;;;6.79;55.80;99413.88;5086134;28;20174;-67
2021/12/19 10:43:16;;;;;;;4.57;3.33;;;;;;;6.86;52.56;99439.09;5086064;28;20090;-66
2021/12/19 10:45:51;;;;;;;4.10;3.03;;;;;;;6.85;53.50;99438.25;5086059;28;20049;-67
2021/12/19 10:48:27;;;;;;;4.97;2.65;;;;;;;6.99;53.11;99432.44;5086437;28;20040;-66
2021/12/19 10:51:05;;;;;;;5.25;2.80;;;;;;;7.24;53.57;99450.78;5086158;28;20048;-67
2021/12/19 10:53:41;;;;;;;4.65;3.17;;;;;;;7.35;51.82;99433.63;5085856;28;20067;-66
2021/12/19 10:56:15;;;;;;;4.45;2.67;;;;;;;7.24;52.62;99390.16;5085989;28;20074;-66
2021/12/19 10:58:52;;;;;;;4.35;2.83;;;;;;;7.42;51.74;99444.78;5086580;28;20044;-66
2021/12/19 11:01:29;;;;;;;4.95;3.25;;;;;;;7.20;52.85;99463.22;5084784;28;20037;-67
2021/12/19 11:04:03;;;;;;;4.15;2.47;;;;;;;7.16;52.02;99466.91;5085607;28;20292;-67
2021/12/19 11:06:37;;;;;;;4.38;2.80;;;;;;;6.02;51.64;99253.63;5085882;28;20280;-67
2021/12/19 11:09:14;;;;;;;6.63;4.45;;;;;;;7.17;51.89;99434.34;5085270;28;20049;-66
2021/12/19 11:11:53;;;;;;;5.15;3.60;;;;;;;7.27;51.22;99463.81;5084898;28;20040;-66
2021/12/19 11:14:27;;;;;;;6.18;3.95;;;;;;;7.14;51.52;99445.00;5084769;28;20103;-67
2021/12/19 11:17:01;;;;;;;4.97;3.10;;;;;;;6.49;53.24;99336.94;5085808;28;20040;-67
2021/12/19 11:19:34;;;;;;;5.72;3.58;;;;;;;7.33;51.90;99450.44;5085396;28;20090;-66
2021/12/19 11:22:07;;;;;;;5.40;3.60;;;;;;;7.36;52.92;99440.63;5085199;28;20044;-66
2021/12/19 11:24:41;;;;;;;4.97;3.63;;;;;;;6.65;52.39;99306.44;5085579;28;20048;-67
2021/12/19 11:27:13;;;;;;;6.50;3.65;;;;;;;7.52;52.83;99437.34;5085502;28;20098;-67
2021/12/19 11:29:46;;;;;;;6.03;3.70;;;;;;;7.57;52.29;99441.53;5085312;28;20060;-67
2021/12/19 11:32:22;;;;;;;8.15;4.15;;;;;;;7.54;52.48;99438.16;5085193;28;20092;-66
2021/12/19 11:35:01;;;;;;;7.00;3.55;;;;;;;7.70;51.05;99420.75;5085242;28;20045;-66
2021/12/19 11:37:37;;;;;;;6.28;4.18;;;;;;;7.60;52.76;99433.47;5084490;28;20036;-67
2021/12/19 11:40:16;;;;;;;6.57;3.53;;;;;;;7.57;51.56;99417.78;5089636;28;20041;-67
2021/12/19 11:42:49;;;;;;;7.22;4.00;;;;;;;7.61;52.50;99422.00;5089387;28;20088;-67
2021/12/19 11:45:34;;;;;;;6.07;3.92;;;;;;;7.65;53.11;99422.72;5089185;28;20051;-65
2021/12/19 11:48:18;;;;;;;6.15;4.28;;;;;;;7.64;51.11;99419.25;5089118;28;20251;-66
2021/12/19 11:50:53;;;;;;;5.75;3.90;;;;;;;7.51;51.76;99367.06;5089248;28;20036;-65
2021/12/19 11:53:28;;;;;;;6.80;4.22;;;;;;;7.80;53.35;99397.47;5088932;28;20044;-67
2021/12/19 11:56:10;;;;;;;6.47;4.03;;;;;;;7.57;51.16;99393.19;5088894;28;20045;-66
2021/12/19 11:58:45;;;;;;;5.50;3.55;;;;;;;7.35;51.92;99336.09;5088472;28;20048;-66
2021/12/19 12:01:23;;;;;;;5.18;3.40;;;;;;;7.56;51.35;99380.94;5089212;28;20105;-67
2021/12/19 12:03:57;;;;;;;5.22;3.50;;;;;;;7.57;52.04;99393.19;5089054;28;20094;-66
2021/12/19 12:06:35;;;;;;;6.63;4.43;;;;;;;7.70;52.95;99386.47;5088809;28;20044;-66
2021/12/19 12:09:22;;;;;;;7.10;4.45;;;;;;;7.71;51.29;99390.81;5088278;28;20335;-66
2021/12/19 12:12:33;;;;;;;5.10;3.85;;;;;;;7.50;51.00;99354.81;5088535;28;20086;-66
2021/12/19 12:15:09;;;;;;;8.70;4.30;;;;;;;7.47;53.22;99354.94;5088183;28;20044;-66
2021/12/19 12:17:49;;;;;;;6.25;4.22;;;;;;;7.39;53.38;99352.63;5088415;28;20090;-66
2021/12/19 12:20:32;;;;;;;5.32;4.38;;;;;;;7.42;52.70;99356.91;5088710;28;20044;-66
2021/12/19 12:23:10;;;;;;;7.70;5.03;;;;;;;7.44;53.00;99349.78;5088471;28;20044;-66
2021/12/19 12:25:43;;;;;;;5.72;3.33;;;;;;;7.46;54.11;99351.44;5088740;28;20059;-66
2021/12/19 12:28:19;;;;;;;7.50;4.80;;;;;;;7.51;53.25;99348.63;5088516;28;20086;-66
2021/12/19 12:30:54;;;;;;;5.88;3.60;;;;;;;7.52;53.48;99377.56;5087592;28;20041;-66
2021/12/19 12:33:27;;;;;;;;;;;;;;;7.51;51.92;99351.25;5088122;28;20044;-66
2021/12/19 12:36:00;;;;;;;6.90;3.72;;;;;;;7.51;53.26;99364.44;5088318;28;19926;-66
2021/12/19 12:38:34;;;;;;;4.75;2.95;;;;;;;7.42;52.86;99349.88;5088555;28;20247;-66
2021/12/19 12:41:10;;;;;;;5.47;3.00;;;;;;;7.31;52.83;99350.28;5088408;28;20041;-67
2021/12/19 12:43:44;;;;;;;5.43;3.38;;;;;;;7.19;53.76;99303.34;5088118;28;20048;-66
2021/12/19 12:46:18;;;;;;;5.22;3.05;;;;;;;7.44;52.75;99331.34;5087285;28;20293;-66
2021/12/19 12:48:56;;;;;;;4.47;2.85;;;;;;;7.48;53.16;99349.59;5087999;28;20086;-66
2021/12/19 12:51:32;;;;;;;4.22;2.80;;;;;;;6.62;52.68;99273.19;5086974;28;20104;-66